Terminal Aerodrome Forecast
Issued by NWS

Current Version | Previous Version | Graphics & Text | Print | Product List | Glossary On
Versions: 1 2 3 4 5 6 7 8 9 10 11 12 13 14 15 16 17 18 19 20
000
FTUS41 KILN 271124
TAFLCK
TAF
KLCK 271124Z 2712/2812 36003KT P6SM OVC050
     FM271800 04004KT P6SM BKN050
     FM272300 06004KT P6SM SCT050
     FM280200 VRB02KT P6SM SKC
     FM280900 VRB02KT 4SM BR SKC=

USA.gov is the U.S. government's official web portal to all federal, state and local government web resources and services.